createdAt,value
2023-01-08T00:01:07.336Z,100319.50
2023-01-08T00:03:34.405Z,100315.88
2023-01-08T00:06:06.056Z,100320.66
2023-01-08T00:08:33.422Z,100306.88
2023-01-08T00:11:00.484Z,100307.34
2023-01-08T00:13:27.179Z,100300.97
2023-01-08T00:15:54.045Z,100300.31
2023-01-08T00:18:21.003Z,100296.47
2023-01-08T00:20:48.779Z,100296.56
2023-01-08T00:23:17.598Z,100285.00
2023-01-08T00:25:44.255Z,100288.97
2023-01-08T00:28:11.043Z,100273.97
2023-01-08T00:30:37.701Z,100268.56
2023-01-08T00:33:04.511Z,100259.94
2023-01-08T00:35:31.002Z,100264.13
2023-01-08T00:37:57.561Z,100263.00
2023-01-08T00:40:24.090Z,100268.00
2023-01-08T00:42:50.482Z,100246.09
2023-01-08T00:45:16.889Z,100239.03
2023-01-08T00:47:43.426Z,100244.50
2023-01-08T00:50:10.404Z,100240.28
2023-01-08T00:52:37.028Z,100239.97
2023-01-08T00:55:03.745Z,100236.22
2023-01-08T00:57:38.058Z,100235.78
2023-01-08T01:00:08.657Z,100252.69
2023-01-08T01:02:36.396Z,100250.13
2023-01-08T01:05:03.465Z,100248.50
2023-01-08T01:07:29.851Z,100240.22
2023-01-08T01:09:56.239Z,100238.88
2023-01-08T01:12:22.826Z,100234.56
2023-01-08T01:14:49.218Z,100221.81
2023-01-08T01:17:15.888Z,100220.81
2023-01-08T01:19:42.567Z,100229.22
2023-01-08T01:22:08.984Z,100227.06
2023-01-08T01:24:35.624Z,100221.63
2023-01-08T01:27:02.211Z,100225.28
2023-01-08T01:29:28.709Z,100221.19
2023-01-08T01:31:55.112Z,100208.78
2023-01-08T01:34:21.671Z,100216.53
2023-01-08T01:36:48.176Z,100214.19
2023-01-08T01:39:14.677Z,100214.19
2023-01-08T01:41:44.502Z,100208.28
2023-01-08T01:44:43.078Z,100226.91
2023-01-08T01:47:33.048Z,100210.53
2023-01-08T01:50:10.505Z,100204.75
2023-01-08T01:52:52.793Z,100205.88
2023-01-08T01:55:19.508Z,100214.31
2023-01-08T01:57:52.667Z,100213.97
2023-01-08T02:00:19.435Z,100210.56
2023-01-08T02:02:45.879Z,100201.94
2023-01-08T02:05:12.364Z,100208.41
2023-01-08T02:08:06.226Z,100196.81
2023-01-08T02:10:42.336Z,100188.41
2023-01-08T02:13:17.631Z,100173.44
2023-01-08T02:16:00.289Z,100165.03
2023-01-08T02:18:34.446Z,100176.06
2023-01-08T02:21:10.332Z,100165.03
2023-01-08T02:23:41.808Z,100167.06
2023-01-08T02:26:30.016Z,100163.69
2023-01-08T02:29:18.907Z,100163.00
2023-01-08T02:31:45.955Z,100172.19
2023-01-08T02:34:13.045Z,100169.22
2023-01-08T02:36:42.335Z,100167.75
2023-01-08T02:39:21.021Z,100158.81
2023-01-08T02:41:56.895Z,100148.56
2023-01-08T02:44:45.212Z,100146.88
2023-01-08T02:47:21.964Z,100135.19
2023-01-08T02:49:52.247Z,100145.41
2023-01-08T02:52:19.815Z,100136.44
2023-01-08T02:54:48.345Z,100127.09
2023-01-08T02:57:17.813Z,100121.91
2023-01-08T02:59:47.284Z,100114.63
2023-01-08T03:02:14.093Z,100114.16
2023-01-08T03:04:50.287Z,100122.13
2023-01-08T03:07:16.742Z,100108.84
2023-01-08T03:09:43.271Z,100106.47
2023-01-08T03:12:19.253Z,100118.28
2023-01-08T03:15:04.840Z,100117.25
2023-01-08T03:17:36.134Z,100115.91
2023-01-08T03:20:14.021Z,100118.03
2023-01-08T03:22:43.855Z,100115.66
2023-01-08T03:25:13.020Z,100122.38
2023-01-08T03:27:45.386Z,100123.38
2023-01-08T03:30:14.119Z,100130.22
2023-01-08T03:32:43.281Z,100120.00
2023-01-08T03:35:13.621Z,100111.03
2023-01-08T03:37:45.670Z,100113.44
2023-01-08T03:40:22.616Z,100125.09
2023-01-08T03:42:49.182Z,100122.59
2023-01-08T03:45:15.712Z,100118.63
2023-01-08T03:47:43.614Z,100107.72
2023-01-08T03:50:15.941Z,100108.88
2023-01-08T03:52:42.329Z,100107.06
2023-01-08T03:55:09.279Z,100107.41
2023-01-08T03:57:35.667Z,100119.78
2023-01-08T04:00:02.144Z,100113.41
2023-01-08T04:02:28.658Z,100116.25
2023-01-08T04:04:55.107Z,100111.38
2023-01-08T04:07:21.673Z,100106.00
2023-01-08T04:09:48.130Z,100110.91
2023-01-08T04:12:14.544Z,100116.78
2023-01-08T04:14:40.971Z,100117.03
2023-01-08T04:17:07.425Z,100113.97
2023-01-08T04:19:33.817Z,100107.84
2023-01-08T04:22:00.258Z,100110.69
2023-01-08T04:24:26.691Z,100100.22
2023-01-08T04:26:53.110Z,100100.16
2023-01-08T04:29:19.523Z,100094.00
2023-01-08T04:31:45.958Z,100091.28
2023-01-08T04:34:12.524Z,100094.34
2023-01-08T04:36:39.084Z,100093.91
2023-01-08T04:39:05.683Z,100103.09
2023-01-08T04:41:32.154Z,100101.38
2023-01-08T04:43:58.675Z,100109.31
2023-01-08T04:46:25.240Z,100109.78
2023-01-08T04:48:51.676Z,100106.16
2023-01-08T04:51:18.105Z,100101.63
2023-01-08T04:53:45.503Z,100094.91
2023-01-08T04:56:11.953Z,100092.63
2023-01-08T04:58:39.315Z,100088.09
2023-01-08T05:01:23.927Z,100089.00
2023-01-08T05:03:59.248Z,100085.94
2023-01-08T05:06:26.732Z,100082.16
2023-01-08T05:08:53.333Z,100083.88
2023-01-08T05:11:20.022Z,100071.25
2023-01-08T05:13:51.311Z,100071.72
2023-01-08T05:16:18.262Z,100064.44
2023-01-08T05:18:45.609Z,100067.50
2023-01-08T05:21:13.257Z,100058.63
2023-01-08T05:23:39.919Z,100055.91
2023-01-08T05:26:07.228Z,100059.78
2023-01-08T05:28:34.458Z,100060.78
2023-01-08T05:31:00.992Z,100069.88
2023-01-08T05:33:27.796Z,100054.97
2023-01-08T05:35:54.245Z,100048.41
2023-01-08T05:38:20.987Z,100053.50
2023-01-08T05:40:47.403Z,100047.16
2023-01-08T05:43:13.841Z,100053.06
2023-01-08T05:45:40.245Z,100044.19
2023-01-08T05:48:07.501Z,100040.56
2023-01-08T05:50:34.601Z,100044.53
2023-01-08T05:53:01.103Z,100034.09
2023-01-08T05:55:27.811Z,100025.91
2023-01-08T05:57:54.230Z,100024.50
2023-01-08T06:00:20.754Z,100028.50
2023-01-08T06:02:48.270Z,100033.25
2023-01-08T06:05:14.879Z,100027.09
2023-01-08T06:07:41.315Z,100033.34
2023-01-08T06:10:08.323Z,100030.63
2023-01-08T06:12:34.952Z,100031.41
2023-01-08T06:15:01.373Z,100020.91
2023-01-08T06:17:27.778Z,100036.75
2023-01-08T06:19:54.273Z,100029.38
2023-01-08T06:22:20.697Z,100032.09
2023-01-08T06:24:47.075Z,100029.94
2023-01-08T06:27:13.525Z,100033.28
2023-01-08T06:29:39.920Z,100028.78
2023-01-08T06:32:06.502Z,100024.91
2023-01-08T06:34:32.938Z,100024.13
2023-01-08T06:36:59.318Z,100019.44
2023-01-08T06:39:25.789Z,100022.53
2023-01-08T06:41:52.206Z,100019.44
2023-01-08T06:44:18.677Z,100032.75
2023-01-08T06:46:45.149Z,100029.69
2023-01-08T06:49:11.627Z,100032.41
2023-01-08T06:51:38.008Z,100026.41
2023-01-08T06:54:04.499Z,100025.25
2023-01-08T06:56:30.991Z,100019.72
2023-01-08T06:58:57.401Z,100019.25
2023-01-08T07:01:24.019Z,100022.78
2023-01-08T07:03:50.788Z,100023.31
2023-01-08T07:06:20.082Z,100026.84
2023-01-08T07:08:47.358Z,100022.34
2023-01-08T07:11:15.085Z,100026.50
2023-01-08T07:13:41.750Z,100018.56
2023-01-08T07:16:10.343Z,100025.81
2023-01-08T07:18:37.072Z,100015.69
2023-01-08T07:21:05.396Z,100010.38
2023-01-08T07:23:32.614Z,100012.88
2023-01-08T07:26:07.862Z,100017.66
2023-01-08T07:28:34.353Z,100016.66
2023-01-08T07:31:05.602Z,100010.84
2023-01-08T07:33:32.295Z,100016.09
2023-01-08T07:35:58.709Z,100015.00
2023-01-08T07:38:25.228Z,100012.31
2023-01-08T07:40:51.701Z,100014.50
2023-01-08T07:43:18.371Z,100009.84
2023-01-08T07:45:44.813Z,100014.88
2023-01-08T07:48:15.604Z,100015.97
2023-01-08T07:50:45.560Z,100018.88
2023-01-08T07:53:13.694Z,100025.31
2023-01-08T07:55:40.170Z,100023.38
2023-01-08T07:58:11.506Z,100023.81
2023-01-08T08:00:38.522Z,100025.53
2023-01-08T08:03:06.575Z,100029.25
2023-01-08T08:05:34.987Z,100018.28
2023-01-08T08:08:01.693Z,100018.81
2023-01-08T08:10:28.536Z,100013.25
2023-01-08T08:12:55.043Z,100008.72
2023-01-08T08:15:21.532Z,100008.22
2023-01-08T08:17:48.401Z,99993.81
2023-01-08T08:20:15.480Z,99986.09
2023-01-08T08:22:41.890Z,99989.03
2023-01-08T08:25:08.965Z,99982.66
2023-01-08T08:27:35.415Z,99975.81
2023-01-08T08:30:01.967Z,99979.09
2023-01-08T08:32:28.594Z,99976.34
2023-01-08T08:34:55.577Z,99967.22
2023-01-08T08:37:21.988Z,99967.47
2023-01-08T08:39:48.386Z,99962.72
2023-01-08T08:42:14.800Z,99964.25
2023-01-08T08:44:42.873Z,99959.47
2023-01-08T08:47:10.096Z,99951.66
2023-01-08T08:49:36.526Z,99953.16
2023-01-08T08:52:04.177Z,99957.38
2023-01-08T08:54:30.655Z,99956.31
2023-01-08T08:56:57.129Z,99955.97
2023-01-08T08:59:23.552Z,99960.09
2023-01-08T09:01:50.064Z,99952.97
2023-01-08T09:04:16.613Z,99954.16
2023-01-08T09:06:42.986Z,99961.97
2023-01-08T09:09:09.482Z,99955.16
2023-01-08T09:11:35.928Z,99947.28
2023-01-08T09:14:02.392Z,99945.75
2023-01-08T09:16:28.809Z,99951.13
2023-01-08T09:18:56.267Z,99952.19
2023-01-08T09:21:22.640Z,99955.63
2023-01-08T09:23:49.598Z,99953.34
2023-01-08T09:26:16.210Z,99950.97
2023-01-08T09:28:42.616Z,99945.75
2023-01-08T09:31:09.161Z,99945.75
2023-01-08T09:33:35.626Z,99948.25
2023-01-08T09:36:02.084Z,99939.25
2023-01-08T09:38:30.014Z,99952.72
2023-01-08T09:41:11.459Z,99949.03
2023-01-08T09:43:43.393Z,99946.66
2023-01-08T09:46:12.184Z,99946.75
2023-01-08T09:48:40.612Z,99957.31
2023-01-08T09:51:13.432Z,99951.06
2023-01-08T09:53:40.638Z,99948.94
2023-01-08T09:56:14.803Z,99939.34
2023-01-08T09:58:55.892Z,99946.47
2023-01-08T10:01:26.075Z,99945.59
2023-01-08T10:04:13.061Z,99936.63
2023-01-08T10:06:40.966Z,99936.72
2023-01-08T10:09:14.385Z,99938.47
2023-01-08T10:11:44.934Z,99928.63
2023-01-08T10:14:22.424Z,99926.06
2023-01-08T10:16:57.354Z,99931.00
2023-01-08T10:19:23.914Z,99921.50
2023-01-08T10:21:51.475Z,99918.50
2023-01-08T10:24:19.229Z,99909.25
2023-01-08T10:26:47.689Z,99909.59
2023-01-08T10:29:20.600Z,99906.16
2023-01-08T10:31:55.519Z,99894.38
2023-01-08T10:34:41.325Z,99897.28
2023-01-08T10:37:24.681Z,99890.25
2023-01-08T10:39:52.539Z,99882.06
2023-01-08T10:42:20.931Z,99879.75
2023-01-08T10:45:13.329Z,99874.09
2023-01-08T10:47:39.799Z,99869.00
2023-01-08T10:50:20.307Z,99873.25
2023-01-08T10:52:58.872Z,99864.91
2023-01-08T10:55:37.380Z,99866.44
2023-01-08T10:58:14.195Z,99863.34
2023-01-08T11:00:41.501Z,99861.25
2023-01-08T11:03:19.824Z,99865.84
2023-01-08T11:05:46.453Z,99855.16
2023-01-08T11:08:17.791Z,99858.59
2023-01-08T11:10:53.860Z,99848.28
2023-01-08T11:13:20.386Z,99846.66
2023-01-08T11:15:58.564Z,99847.22
2023-01-08T11:18:26.641Z,99842.06
2023-01-08T11:21:05.989Z,99838.19
2023-01-08T11:23:32.648Z,99832.50
2023-01-08T11:26:08.134Z,99814.75
2023-01-08T11:28:49.466Z,99817.63
2023-01-08T11:31:39.600Z,99818.78
2023-01-08T11:34:15.550Z,99807.44
2023-01-08T11:36:51.058Z,99804.50
2023-01-08T11:39:19.109Z,99803.69
2023-01-08T11:42:23.178Z,99809.22
2023-01-08T11:45:01.196Z,99802.09
2023-01-08T11:47:35.182Z,99805.25
2023-01-08T11:50:24.666Z,99806.06
2023-01-08T11:53:14.642Z,99805.19
2023-01-08T11:55:50.496Z,99816.53
2023-01-08T11:58:32.172Z,99811.09
2023-01-08T12:01:04.344Z,99803.69
2023-01-08T12:03:37.372Z,99793.91
2023-01-08T12:06:28.063Z,99779.91
2023-01-08T12:09:03.800Z,99783.41
2023-01-08T12:11:44.843Z,99781.91
2023-01-08T12:14:34.796Z,99787.00
2023-01-08T12:17:14.143Z,99778.53
2023-01-08T12:19:52.830Z,99764.81
2023-01-08T12:22:22.134Z,99773.91
2023-01-08T12:24:57.645Z,99762.25
2023-01-08T12:27:58.260Z,99762.69
2023-01-08T12:30:36.451Z,99761.06
2023-01-08T12:33:09.224Z,99748.88
2023-01-08T12:35:44.817Z,99740.03
2023-01-08T12:38:43.251Z,99749.53
2023-01-08T12:41:16.637Z,99757.22
2023-01-08T12:44:05.413Z,99756.06
2023-01-08T12:46:35.144Z,99747.47
2023-01-08T12:49:04.541Z,99738.03
2023-01-08T12:51:54.644Z,99741.66
2023-01-08T12:54:51.448Z,99737.97
2023-01-08T12:57:27.064Z,99729.41
2023-01-08T13:00:03.146Z,99737.91
2023-01-08T13:03:04.145Z,99744.63
2023-01-08T13:05:36.745Z,99735.53
2023-01-08T13:08:22.169Z,99734.63
2023-01-08T13:10:54.150Z,99733.84
2023-01-08T13:13:30.657Z,99721.41
2023-01-08T13:16:14.175Z,99725.41
2023-01-08T13:18:40.982Z,99729.97
2023-01-08T13:21:11.693Z,99730.09
2023-01-08T13:23:38.774Z,99723.13
2023-01-08T13:26:06.742Z,99718.38
2023-01-08T13:28:43.457Z,99707.44
2023-01-08T13:31:22.214Z,99708.78
2023-01-08T13:33:52.304Z,99700.94
2023-01-08T13:36:30.303Z,99698.44
2023-01-08T13:39:23.263Z,99700.88
2023-01-08T13:42:13.117Z,99705.84
2023-01-08T13:44:42.496Z,99706.34
2023-01-08T13:47:33.600Z,99711.66
2023-01-08T13:50:21.470Z,99697.53
2023-01-08T13:53:12.737Z,99695.66
2023-01-08T13:55:41.794Z,99699.19
2023-01-08T13:58:18.456Z,99701.91
2023-01-08T14:00:49.353Z,99689.34
2023-01-08T14:03:30.684Z,99688.38
2023-01-08T14:06:23.478Z,99686.03
2023-01-08T14:08:58.924Z,99686.72
2023-01-08T14:11:47.042Z,99674.31
2023-01-08T14:14:17.193Z,99674.66
2023-01-08T14:16:44.791Z,99674.41
2023-01-08T14:19:17.337Z,99673.50
2023-01-08T14:21:52.601Z,99675.13
2023-01-08T14:24:20.261Z,99671.88
2023-01-08T14:26:58.895Z,99671.78
2023-01-08T14:29:30.778Z,99669.72
2023-01-08T14:32:00.205Z,99671.31
2023-01-08T14:34:30.006Z,99663.91
2023-01-08T14:36:57.187Z,99679.19
2023-01-08T14:39:35.090Z,99674.47
2023-01-08T14:42:31.753Z,99681.88
2023-01-08T14:45:03.604Z,99681.16
2023-01-08T14:47:35.321Z,99673.72
2023-01-08T14:50:01.835Z,99669.94
2023-01-08T14:52:28.831Z,99669.72
2023-01-08T14:55:03.049Z,99676.72
2023-01-08T14:57:30.022Z,99674.00
2023-01-08T15:00:02.070Z,99669.56
2023-01-08T15:02:34.856Z,99668.97
2023-01-08T15:05:15.931Z,99672.75
2023-01-08T15:07:45.045Z,99678.22
2023-01-08T15:10:41.965Z,99671.41
2023-01-08T15:13:29.708Z,99666.81
2023-01-08T15:15:59.319Z,99670.03
2023-01-08T15:18:26.176Z,99659.75
2023-01-08T15:20:53.423Z,99662.13
2023-01-08T15:23:51.436Z,99655.47
2023-01-08T15:26:18.733Z,99653.75
2023-01-08T15:28:58.322Z,99662.31
2023-01-08T15:31:32.978Z,99665.59
2023-01-08T15:34:00.505Z,99665.03
2023-01-08T15:36:27.397Z,99667.91
2023-01-08T15:38:53.937Z,99672.06
2023-01-08T15:41:41.579Z,99668.50
2023-01-08T15:44:10.063Z,99668.50
2023-01-08T15:46:36.525Z,99664.97
2023-01-08T15:49:03.004Z,99677.53
2023-01-08T15:51:33.205Z,99668.59
2023-01-08T15:54:01.323Z,99669.78
2023-01-08T15:56:27.790Z,99668.50
2023-01-08T15:58:54.264Z,99665.66
2023-01-08T16:01:20.773Z,99671.84
2023-01-08T16:03:48.358Z,99666.69
2023-01-08T16:06:14.964Z,99673.41
2023-01-08T16:08:45.780Z,99670.31
2023-01-08T16:11:13.728Z,99669.03
2023-01-08T16:13:40.366Z,99671.03
2023-01-08T16:16:11.666Z,99665.88
2023-01-08T16:18:38.706Z,99661.66
2023-01-08T16:21:06.552Z,99656.13
2023-01-08T16:23:35.448Z,99661.66
2023-01-08T16:26:10.418Z,99664.09
2023-01-08T16:28:37.333Z,99657.91
2023-01-08T16:31:04.252Z,99651.09
2023-01-08T16:33:31.153Z,99658.69
2023-01-08T16:36:03.065Z,99663.09
2023-01-08T16:38:31.280Z,99667.41
2023-01-08T16:40:59.769Z,99657.28
2023-01-08T16:43:28.425Z,99655.31
2023-01-08T16:45:55.199Z,99652.22
2023-01-08T16:48:22.677Z,99643.63
2023-01-08T16:50:49.816Z,99636.16
2023-01-08T16:53:21.524Z,99636.47
2023-01-08T16:55:47.875Z,99631.69
2023-01-08T16:58:14.322Z,99632.50
2023-01-08T17:00:40.849Z,99641.56
2023-01-08T17:03:07.415Z,99638.75
2023-01-08T17:05:36.189Z,99641.06
2023-01-08T17:08:02.640Z,99637.97
2023-01-08T17:10:29.251Z,99644.22
2023-01-08T17:12:55.845Z,99646.50
2023-01-08T17:15:22.353Z,99639.75
2023-01-08T17:17:48.880Z,99629.13
2023-01-08T17:20:15.581Z,99626.09
2023-01-08T17:22:42.043Z,99632.00
2023-01-08T17:25:09.044Z,99629.50
2023-01-08T17:27:35.807Z,99623.00
2023-01-08T17:30:02.536Z,99615.78
2023-01-08T17:32:30.255Z,99616.75
2023-01-08T17:34:56.749Z,99611.19
2023-01-08T17:37:23.363Z,99604.94
2023-01-08T17:39:49.946Z,99605.44
2023-01-08T17:42:25.538Z,99610.94
2023-01-08T17:44:52.677Z,99607.44
2023-01-08T17:47:22.637Z,99604.94
2023-01-08T17:49:50.513Z,99608.25
2023-01-08T17:52:17.503Z,99607.72
2023-01-08T17:54:44.053Z,99603.00
2023-01-08T17:57:10.568Z,99604.72
2023-01-08T17:59:37.496Z,99611.66
2023-01-08T18:02:04.223Z,99603.91
2023-01-08T18:04:32.851Z,99600.63
2023-01-08T18:06:59.700Z,99600.63
2023-01-08T18:09:26.223Z,99585.47
2023-01-08T18:11:52.691Z,99586.63
2023-01-08T18:14:19.257Z,99591.06
2023-01-08T18:16:45.916Z,99588.34
2023-01-08T18:19:13.142Z,99587.75
2023-01-08T18:21:39.848Z,99577.28
2023-01-08T18:24:06.666Z,99592.44
2023-01-08T18:26:33.050Z,99583.59
2023-01-08T18:28:59.572Z,99582.81
2023-01-08T18:31:26.174Z,99579.72
2023-01-08T18:33:52.972Z,99577.28
2023-01-08T18:36:20.582Z,99574.06
2023-01-08T18:38:48.401Z,99574.56
2023-01-08T18:41:36.136Z,99582.16
2023-01-08T18:44:05.241Z,99573.88
2023-01-08T18:46:31.669Z,99575.41
2023-01-08T18:48:58.120Z,99571.38
2023-01-08T18:51:24.679Z,99578.16
2023-01-08T18:53:51.256Z,99575.78
2023-01-08T18:56:26.615Z,99567.28
2023-01-08T18:58:53.135Z,99568.53
2023-01-08T19:01:19.759Z,99570.41
2023-01-08T19:03:46.270Z,99578.66
2023-01-08T19:06:13.902Z,99576.44
2023-01-08T19:08:41.991Z,99583.75
2023-01-08T19:11:09.686Z,99577.75
2023-01-08T19:13:36.176Z,99571.69
2023-01-08T19:16:07.105Z,99574.59
2023-01-08T19:18:34.373Z,99564.72
2023-01-08T19:21:00.845Z,99562.38
2023-01-08T19:23:28.798Z,99566.66
2023-01-08T19:25:55.554Z,99560.00
2023-01-08T19:28:22.019Z,99566.94
2023-01-08T19:30:56.644Z,99559.56
2023-01-08T19:33:23.904Z,99560.06
2023-01-08T19:35:50.681Z,99560.22
2023-01-08T19:38:17.772Z,99559.84
2023-01-08T19:40:44.337Z,99566.94
2023-01-08T19:43:31.054Z,99559.19
2023-01-08T19:46:04.123Z,99563.41
2023-01-08T19:48:32.094Z,99555.44
2023-01-08T19:50:58.626Z,99561.63
2023-01-08T19:53:25.085Z,99564.91
2023-01-08T19:55:51.806Z,99556.34
2023-01-08T19:58:19.464Z,99556.34
2023-01-08T20:00:46.465Z,99546.09
2023-01-08T20:03:13.172Z,99545.69
2023-01-08T20:05:44.184Z,99538.72
2023-01-08T20:08:10.596Z,99531.75
2023-01-08T20:10:37.113Z,99533.03
2023-01-08T20:13:04.159Z,99536.94
2023-01-08T20:15:32.354Z,99530.22
2023-01-08T20:17:59.494Z,99531.09
2023-01-08T20:20:26.100Z,99530.97
2023-01-08T20:22:52.504Z,99524.41
2023-01-08T20:25:19.659Z,99522.03
2023-01-08T20:27:46.101Z,99523.97
2023-01-08T20:30:14.608Z,99513.31
2023-01-08T20:32:42.072Z,99511.06
2023-01-08T20:35:08.896Z,99518.09
2023-01-08T20:37:36.115Z,99521.66
2023-01-08T20:40:02.769Z,99513.72
2023-01-08T20:42:33.969Z,99514.50
2023-01-08T20:45:00.907Z,99518.22
2023-01-08T20:47:27.453Z,99511.78
2023-01-08T20:49:53.874Z,99510.94
2023-01-08T20:52:20.298Z,99506.25
2023-01-08T20:54:46.824Z,99498.44
2023-01-08T20:57:13.283Z,99508.53
2023-01-08T20:59:39.792Z,99509.91
2023-01-08T21:02:07.170Z,99498.34
2023-01-08T21:04:33.642Z,99499.78
2023-01-08T21:07:00.251Z,99501.00
2023-01-08T21:09:26.784Z,99492.81
2023-01-08T21:11:53.334Z,99488.50
2023-01-08T21:14:19.812Z,99497.53
2023-01-08T21:16:47.315Z,99497.84
2023-01-08T21:19:15.269Z,99498.63
2023-01-08T21:21:41.731Z,99493.13
2023-01-08T21:24:11.024Z,99500.88
2023-01-08T21:26:37.866Z,99498.94
2023-01-08T21:29:06.294Z,99495.41
2023-01-08T21:31:33.669Z,99494.97
2023-01-08T21:34:01.484Z,99490.25
2023-01-08T21:36:30.090Z,99488.25
2023-01-08T21:38:58.186Z,99484.44
2023-01-08T21:41:44.609Z,99481.63
2023-01-08T21:44:41.643Z,99485.97
2023-01-08T21:47:16.435Z,99479.72
2023-01-08T21:49:44.138Z,99477.78
2023-01-08T21:52:29.105Z,99468.88
2023-01-08T21:54:57.939Z,99466.81
2023-01-08T21:57:27.659Z,99468.06
2023-01-08T21:59:54.936Z,99466.88
2023-01-08T22:02:23.284Z,99464.88
2023-01-08T22:04:49.815Z,99467.28
2023-01-08T22:07:17.117Z,99454.03
2023-01-08T22:09:43.644Z,99446.97
2023-01-08T22:12:10.079Z,99453.59
2023-01-08T22:14:36.685Z,99455.09
2023-01-08T22:17:08.309Z,99442.78
2023-01-08T22:19:38.304Z,99453.16
2023-01-08T22:22:04.856Z,99444.44
2023-01-08T22:24:31.350Z,99444.47
2023-01-08T22:26:57.847Z,99432.56
2023-01-08T22:29:24.241Z,99434.59
2023-01-08T22:31:50.703Z,99432.59
2023-01-08T22:34:18.171Z,99424.72
2023-01-08T22:36:46.300Z,99428.56
2023-01-08T22:39:12.796Z,99431.22
2023-01-08T22:41:39.183Z,99426.44
2023-01-08T22:44:05.658Z,99422.50
2023-01-08T22:46:32.101Z,99427.81
2023-01-08T22:48:58.527Z,99418.00
2023-01-08T22:51:27.802Z,99424.75
2023-01-08T22:53:55.448Z,99425.44
2023-01-08T22:56:22.308Z,99420.56
2023-01-08T22:58:48.844Z,99411.03
2023-01-08T23:01:22.184Z,99414.75
2023-01-08T23:03:53.202Z,99411.81
2023-01-08T23:06:21.760Z,99404.44
2023-01-08T23:08:49.180Z,99401.09
2023-01-08T23:11:18.058Z,99402.38
2023-01-08T23:13:44.995Z,99403.09
2023-01-08T23:16:13.549Z,99409.53
2023-01-08T23:18:40.483Z,99401.94
2023-01-08T23:21:12.515Z,99406.69
2023-01-08T23:23:39.243Z,99409.41
2023-01-08T23:26:11.158Z,99403.03
2023-01-08T23:28:38.235Z,99395.06
2023-01-08T23:31:09.887Z,99395.97
2023-01-08T23:33:36.193Z,99399.22
2023-01-08T23:36:03.277Z,99388.81
2023-01-08T23:38:29.825Z,99390.25
2023-01-08T23:40:56.640Z,99389.97
2023-01-08T23:43:23.057Z,99389.72
2023-01-08T23:45:50.246Z,99377.97
2023-01-08T23:48:17.091Z,99379.59
2023-01-08T23:50:43.492Z,99373.53
2023-01-08T23:53:10.615Z,99371.00
2023-01-08T23:55:37.045Z,99358.81
2023-01-08T23:58:03.510Z,99361.69
